createdAt,value
2018-08-11T00:00:23.229Z,49.39
2018-08-11T00:02:52.572Z,49.66
2018-08-11T00:05:22.109Z,49.93
2018-08-11T00:07:51.752Z,50.36
2018-08-11T00:10:23.173Z,49.93
2018-08-11T00:12:52.758Z,49.74
2018-08-11T00:15:22.117Z,50.88
2018-08-11T00:17:51.331Z,50.84
2018-08-11T00:20:25.950Z,50.81
2018-08-11T00:22:55.981Z,51.98
2018-08-11T00:25:25.273Z,53.35
2018-08-11T00:27:54.592Z,55.32
2018-08-11T00:30:24.373Z,57.11
2018-08-11T00:32:53.611Z,60.36
2018-08-11T00:35:22.854Z,62.80
2018-08-11T00:37:52.045Z,64.93
2018-08-11T00:40:21.669Z,66.82
2018-08-11T00:42:51.594Z,67.24
2018-08-11T00:45:20.909Z,67.40
2018-08-11T00:47:50.366Z,68.92
2018-08-11T00:50:23.776Z,69.68
2018-08-11T00:52:53.511Z,72.52
2018-08-11T00:55:22.888Z,73.94
2018-08-11T00:57:52.289Z,76.73
2018-08-11T01:00:21.510Z,76.69
2018-08-11T01:02:50.800Z,76.54
2018-08-11T01:05:21.141Z,76.95
2018-08-11T01:07:50.765Z,76.60
2018-08-11T01:10:20.227Z,76.21
2018-08-11T01:12:49.881Z,75.75
2018-08-11T01:15:20.743Z,75.74
2018-08-11T01:17:51.637Z,75.82
2018-08-11T01:20:21.143Z,75.42
2018-08-11T01:22:51.566Z,75.00
2018-08-11T01:25:20.910Z,75.24
2018-08-11T01:27:50.078Z,74.98
2018-08-11T01:30:20.721Z,74.31
2018-08-11T01:32:49.896Z,74.29
2018-08-11T01:35:19.267Z,74.71
2018-08-11T01:37:48.442Z,73.77
2018-08-11T01:40:18.030Z,73.29
2018-08-11T01:42:48.394Z,74.17
2018-08-11T01:45:18.338Z,73.60
2018-08-11T01:47:47.405Z,73.81
2018-08-11T01:50:17.018Z,73.73
2018-08-11T01:52:47.182Z,73.55
2018-08-11T01:55:18.110Z,74.50
2018-08-11T01:57:47.513Z,74.63
2018-08-11T02:00:17.593Z,74.64
2018-08-11T02:02:46.725Z,74.74
2018-08-11T02:05:15.803Z,74.08
2018-08-11T02:07:45.688Z,74.64
2018-08-11T02:10:20.698Z,75.24
2018-08-11T02:12:49.995Z,74.94
2018-08-11T02:15:19.252Z,75.14
2018-08-11T02:17:48.721Z,74.75
2018-08-11T02:20:19.226Z,75.28
2018-08-11T02:22:49.646Z,75.42
2018-08-11T02:25:18.895Z,75.17
2018-08-11T02:27:48.200Z,75.32
2018-08-11T02:30:18.405Z,76.17
2018-08-11T02:32:47.721Z,75.74
2018-08-11T02:35:16.995Z,76.14
2018-08-11T02:37:46.969Z,75.87
2018-08-11T02:40:16.923Z,76.32
2018-08-11T02:42:46.158Z,75.97
2018-08-11T02:45:16.684Z,76.95
2018-08-11T02:47:46.667Z,77.00
2018-08-11T02:50:22.148Z,76.25
2018-08-11T02:52:51.452Z,76.74
2018-08-11T02:55:20.534Z,77.38
2018-08-11T02:57:50.417Z,77.50
2018-08-11T03:00:19.695Z,77.18
2018-08-11T03:02:49.446Z,77.49
2018-08-11T03:05:18.707Z,77.28
2018-08-11T03:07:48.451Z,77.65
2018-08-11T03:10:17.815Z,77.82
2018-08-11T03:12:47.973Z,78.38
2018-08-11T03:15:17.217Z,77.86
2018-08-11T03:17:46.595Z,77.90
2018-08-11T03:20:16.090Z,78.09
2018-08-11T03:22:45.564Z,77.83
2018-08-11T03:25:15.274Z,78.58
2018-08-11T03:27:44.926Z,78.50
2018-08-11T03:30:14.265Z,78.23
2018-08-11T03:32:43.434Z,78.16
2018-08-11T03:35:12.957Z,79.00
2018-08-11T03:37:42.130Z,78.73
2018-08-11T03:40:11.725Z,79.17
2018-08-11T03:42:42.029Z,79.43
2018-08-11T03:45:11.757Z,79.17
2018-08-11T03:47:41.237Z,79.13
2018-08-11T03:50:10.337Z,78.98
2018-08-11T03:52:39.710Z,79.19
2018-08-11T03:55:08.837Z,79.17
2018-08-11T03:57:38.593Z,79.53
2018-08-11T04:00:10.214Z,79.98
2018-08-11T04:02:39.505Z,79.79
2018-08-11T04:05:08.819Z,79.77
2018-08-11T04:07:38.080Z,79.59
2018-08-11T04:10:07.803Z,80.14
2018-08-11T04:12:37.190Z,80.26
2018-08-11T04:15:07.464Z,80.41
2018-08-11T04:17:39.386Z,80.21
2018-08-11T04:20:10.461Z,80.67
2018-08-11T04:22:44.192Z,80.39
2018-08-11T04:25:16.707Z,80.83
2018-08-11T04:27:49.616Z,80.30
2018-08-11T04:30:25.685Z,80.76
2018-08-11T04:32:54.942Z,80.79
2018-08-11T04:35:24.181Z,81.30
2018-08-11T04:37:53.516Z,81.32
2018-08-11T04:40:22.724Z,80.71
2018-08-11T04:42:52.033Z,81.35
2018-08-11T04:45:21.327Z,81.67
2018-08-11T04:47:50.856Z,81.79
2018-08-11T04:50:20.370Z,81.43
2018-08-11T04:52:49.725Z,81.80
2018-08-11T04:55:19.614Z,81.92
2018-08-11T04:57:49.181Z,82.29
2018-08-11T05:00:18.841Z,81.42
2018-08-11T05:02:48.266Z,81.31
2018-08-11T05:05:18.057Z,81.86
2018-08-11T05:07:47.610Z,82.17
2018-08-11T05:10:16.829Z,82.40
2018-08-11T05:12:46.380Z,82.29
2018-08-11T05:15:15.759Z,82.63
2018-08-11T05:17:45.097Z,82.05
2018-08-11T05:20:14.360Z,82.04
2018-08-11T05:22:43.665Z,82.12
2018-08-11T05:25:12.942Z,81.84
2018-08-11T05:27:42.864Z,82.56
2018-08-11T05:30:12.493Z,82.05
2018-08-11T05:32:42.073Z,82.29
2018-08-11T05:35:11.432Z,82.26
2018-08-11T05:37:40.872Z,82.79
2018-08-11T05:40:09.847Z,82.28
2018-08-11T05:42:39.427Z,81.63
2018-08-11T05:45:09.063Z,82.22
2018-08-11T05:47:38.469Z,82.84
2018-08-11T05:50:07.768Z,82.26
2018-08-11T05:52:36.948Z,82.16
2018-08-11T05:55:06.735Z,82.28
2018-08-11T05:57:36.740Z,82.13
2018-08-11T06:00:08.569Z,82.44
2018-08-11T06:02:37.714Z,82.12
2018-08-11T06:05:07.735Z,81.98
2018-08-11T06:07:37.749Z,82.46
2018-08-11T06:10:09.195Z,81.75
2018-08-11T06:12:39.168Z,81.83
2018-08-11T06:15:12.387Z,81.12
2018-08-11T06:17:41.653Z,81.77
2018-08-11T06:20:11.285Z,81.12
2018-08-11T06:22:40.282Z,81.95
2018-08-11T06:25:11.400Z,81.65
2018-08-11T06:27:40.602Z,81.58
2018-08-11T06:30:10.640Z,81.67
2018-08-11T06:32:40.015Z,80.98
2018-08-11T06:35:09.419Z,80.80
2018-08-11T06:37:38.711Z,81.25
2018-08-11T06:40:08.155Z,80.85
2018-08-11T06:42:37.465Z,80.90
2018-08-11T06:45:07.689Z,80.93
2018-08-11T06:47:37.252Z,80.80
2018-08-11T06:50:06.842Z,80.34
2018-08-11T06:52:36.331Z,80.61
2018-08-11T06:55:05.824Z,80.85
2018-08-11T06:57:34.972Z,80.12
2018-08-11T07:00:04.348Z,79.98
2018-08-11T07:02:33.704Z,80.10
2018-08-11T07:05:02.983Z,79.76
2018-08-11T07:07:32.299Z,79.97
2018-08-11T07:10:01.617Z,79.25
2018-08-11T07:12:30.774Z,78.80
2018-08-11T07:15:00.001Z,78.96
2018-08-11T07:17:29.555Z,78.90
2018-08-11T07:19:58.845Z,78.41
2018-08-11T07:22:27.914Z,78.04
2018-08-11T07:24:57.038Z,77.83
2018-08-11T07:27:26.580Z,77.41
2018-08-11T07:29:56.037Z,76.86
2018-08-11T07:32:25.715Z,77.10
2018-08-11T07:34:55.235Z,76.01
2018-08-11T07:37:24.974Z,76.38
2018-08-11T07:39:54.288Z,75.72
2018-08-11T07:42:23.683Z,74.76
2018-08-11T07:44:59.612Z,75.48
2018-08-11T07:47:29.228Z,74.27
2018-08-11T07:49:58.915Z,73.50
2018-08-11T07:52:28.586Z,73.87
2018-08-11T07:54:57.938Z,74.89
2018-08-11T07:57:27.677Z,74.13
2018-08-11T07:59:56.858Z,73.03
2018-08-11T08:02:26.476Z,72.76
2018-08-11T08:04:55.744Z,73.09
2018-08-11T08:07:25.061Z,71.44
2018-08-11T08:09:54.395Z,70.67
2018-08-11T08:12:23.999Z,70.54
2018-08-11T08:14:53.617Z,70.50
2018-08-11T08:17:22.980Z,70.52
2018-08-11T08:19:52.680Z,70.46
2018-08-11T08:22:21.922Z,69.47
2018-08-11T08:24:51.861Z,69.30
2018-08-11T08:27:21.376Z,69.45
2018-08-11T08:29:50.719Z,68.13
2018-08-11T08:32:20.087Z,67.51
2018-08-11T08:34:49.493Z,66.37
2018-08-11T08:37:19.042Z,65.15
2018-08-11T08:39:48.331Z,64.83
2018-08-11T08:42:17.542Z,64.92
2018-08-11T08:44:46.947Z,64.04
2018-08-11T08:47:16.302Z,63.87
2018-08-11T08:49:45.513Z,63.97
2018-08-11T08:52:14.979Z,62.35
2018-08-11T08:54:44.195Z,61.81
2018-08-11T08:57:13.504Z,63.06
2018-08-11T08:59:43.031Z,62.03
2018-08-11T09:02:12.434Z,62.54
2018-08-11T09:04:41.780Z,61.41
2018-08-11T09:07:11.244Z,60.54
2018-08-11T09:09:40.685Z,60.36
2018-08-11T09:12:09.680Z,59.49
2018-08-11T09:14:38.906Z,58.95
2018-08-11T09:17:08.875Z,60.11
2018-08-11T09:19:38.581Z,58.62
2018-08-11T09:22:07.903Z,58.66
2018-08-11T09:24:37.125Z,57.16
2018-08-11T09:27:06.487Z,57.04
2018-08-11T09:29:36.544Z,57.30
2018-08-11T09:32:06.265Z,56.79
2018-08-11T09:34:35.611Z,56.60
2018-08-11T09:37:05.136Z,57.25
2018-08-11T09:39:34.534Z,56.61
2018-08-11T09:42:04.364Z,56.65
2018-08-11T10:01:57.620Z,53.88
2018-08-11T10:04:29.967Z,54.66
2018-08-11T10:06:59.903Z,54.89
2018-08-11T10:09:29.132Z,54.31
2018-08-11T10:11:59.684Z,54.69
2018-08-11T10:14:29.247Z,54.13
2018-08-11T10:16:58.704Z,52.21
2018-08-11T10:19:27.810Z,52.69
2018-08-11T10:21:57.239Z,52.79
2018-08-11T10:24:26.745Z,48.97
2018-08-11T10:26:56.286Z,48.12
2018-08-11T10:29:25.507Z,49.38
2018-08-11T10:31:55.713Z,49.18
2018-08-11T10:34:25.272Z,48.15
2018-08-11T10:36:54.627Z,48.75
2018-08-11T10:39:23.943Z,48.53
2018-08-11T10:41:53.275Z,48.70
2018-08-11T10:44:22.877Z,48.88
2018-08-11T10:46:52.278Z,48.34
2018-08-11T10:49:21.633Z,48.30
2018-08-11T10:51:50.901Z,48.51
2018-08-11T10:54:20.239Z,48.65
2018-08-11T10:56:49.308Z,49.57
2018-08-11T10:59:18.523Z,48.38
2018-08-11T11:01:48.149Z,48.07
2018-08-11T11:04:18.464Z,48.67
2018-08-11T11:06:47.736Z,47.67
2018-08-11T11:09:17.080Z,46.20
2018-08-11T11:11:46.618Z,46.36
2018-08-11T11:14:16.125Z,45.74
2018-08-11T11:16:45.285Z,44.79
2018-08-11T11:19:14.658Z,45.16
2018-08-11T11:21:43.942Z,45.13
2018-08-11T11:24:13.373Z,45.29
2018-08-11T11:26:43.455Z,46.04
2018-08-11T11:29:12.817Z,45.96
2018-08-11T11:31:42.330Z,45.32
2018-08-11T11:34:11.700Z,45.71
2018-08-11T11:36:40.991Z,46.19
2018-08-11T11:39:10.319Z,46.19
2018-08-11T11:41:39.905Z,44.72
2018-08-11T11:44:10.198Z,45.75
2018-08-11T11:46:40.108Z,44.71
2018-08-11T11:49:09.444Z,44.89
2018-08-11T11:51:39.015Z,44.06
2018-08-11T11:54:08.585Z,43.33
2018-08-11T11:56:38.490Z,43.29
2018-08-11T11:59:07.831Z,42.65
2018-08-11T12:01:37.534Z,42.71
2018-08-11T12:04:06.785Z,42.87
2018-08-11T12:06:36.287Z,42.21
2018-08-11T12:09:07.778Z,42.67
2018-08-11T12:11:37.181Z,42.66
2018-08-11T12:14:07.841Z,41.70
2018-08-11T12:16:37.560Z,41.12
2018-08-11T12:19:07.149Z,40.60
2018-08-11T12:21:36.499Z,40.29
2018-08-11T12:24:06.080Z,39.76
2018-08-11T12:26:35.656Z,37.38
2018-08-11T12:29:05.097Z,38.36
2018-08-11T12:31:34.414Z,38.13
2018-08-11T12:34:03.817Z,38.81
2018-08-11T12:36:33.279Z,39.42
2018-08-11T12:39:02.500Z,38.04
2018-08-11T12:41:31.972Z,38.31
2018-08-11T12:44:01.334Z,36.60
2018-08-11T12:46:31.206Z,36.23
2018-08-11T12:49:00.500Z,33.79
2018-08-11T12:51:29.897Z,33.26
2018-08-11T12:53:59.894Z,32.86
2018-08-11T12:56:28.975Z,31.77
2018-08-11T12:59:02.738Z,30.47
2018-08-11T13:01:32.192Z,30.02
2018-08-11T13:04:01.635Z,32.10
2018-08-11T13:06:31.457Z,32.97
2018-08-11T13:09:01.315Z,34.10
2018-08-11T13:11:30.623Z,33.59
2018-08-11T13:14:00.087Z,33.82
2018-08-11T13:16:29.693Z,34.71
2018-08-11T13:18:58.976Z,35.12
2018-08-11T13:21:28.134Z,35.14
2018-08-11T13:23:57.394Z,34.89
2018-08-11T13:26:26.608Z,34.88
2018-08-11T13:28:55.953Z,35.75
2018-08-11T13:31:25.498Z,34.07
2018-08-11T13:33:54.955Z,35.31
2018-08-11T13:36:27.451Z,35.92
2018-08-11T13:38:56.835Z,36.01
2018-08-11T13:41:26.434Z,36.28
2018-08-11T13:43:55.765Z,36.62
2018-08-11T13:46:25.230Z,35.69
2018-08-11T13:48:54.465Z,35.93
2018-08-11T13:51:24.024Z,34.31
2018-08-11T13:53:53.836Z,34.50
2018-08-11T13:56:23.506Z,34.20
2018-08-11T13:58:52.744Z,35.35
2018-08-11T14:01:22.043Z,35.30
2018-08-11T14:03:51.577Z,35.50
2018-08-11T14:06:21.015Z,35.57
2018-08-11T14:08:50.510Z,34.60
2018-08-11T14:11:20.169Z,35.30
2018-08-11T14:13:49.572Z,35.47
2018-08-11T14:16:18.716Z,35.34
2018-08-11T14:18:48.505Z,34.75
2018-08-11T14:21:17.725Z,35.20
2018-08-11T14:23:47.264Z,34.52
2018-08-11T14:26:16.620Z,34.13
2018-08-11T14:28:46.186Z,33.73
2018-08-11T14:31:15.501Z,33.68
2018-08-11T14:33:45.534Z,32.14
2018-08-11T14:36:14.840Z,32.00
2018-08-11T14:38:44.719Z,31.83
2018-08-11T14:41:14.017Z,32.29
2018-08-11T14:43:43.341Z,32.55
2018-08-11T14:46:12.795Z,32.16
2018-08-11T14:48:42.334Z,29.04
2018-08-11T14:51:11.918Z,29.67
2018-08-11T14:53:41.350Z,29.18
2018-08-11T14:56:10.833Z,28.32
2018-08-11T14:58:40.523Z,28.54
2018-08-11T15:01:10.347Z,29.44
2018-08-11T15:03:39.713Z,29.19
2018-08-11T15:06:09.195Z,31.07
2018-08-11T15:08:38.457Z,31.60
2018-08-11T15:11:12.808Z,32.45
2018-08-11T15:13:42.051Z,30.74
2018-08-11T15:16:11.366Z,31.06
2018-08-11T15:18:40.722Z,31.97
2018-08-11T15:21:10.998Z,31.06
2018-08-11T15:23:41.384Z,31.92
2018-08-11T15:26:10.686Z,31.38
2018-08-11T15:28:40.134Z,33.17
2018-08-11T15:31:09.789Z,32.46
2018-08-11T15:33:39.152Z,32.73
2018-08-11T15:36:08.645Z,33.68
2018-08-11T15:38:38.352Z,34.17
2018-08-11T15:41:08.220Z,33.95
2018-08-11T15:43:37.629Z,32.64
2018-08-11T15:46:07.084Z,32.94
2018-08-11T15:48:36.671Z,33.70
2018-08-11T15:51:06.246Z,33.19
2018-08-11T15:53:35.601Z,34.34
2018-08-11T15:56:04.816Z,34.49
2018-08-11T15:58:34.180Z,34.40
2018-08-11T16:01:03.476Z,35.29
2018-08-11T16:03:32.799Z,35.43
2018-08-11T16:06:02.309Z,34.85
2018-08-11T16:08:31.881Z,34.47
2018-08-11T16:11:01.054Z,35.40
2018-08-11T16:13:30.293Z,34.82
2018-08-11T16:15:59.627Z,34.79
2018-08-11T16:18:29.191Z,35.49
2018-08-11T16:20:58.730Z,34.91
2018-08-11T16:23:28.367Z,35.42
2018-08-11T16:25:57.762Z,35.08
2018-08-11T16:28:26.945Z,35.25
2018-08-11T16:30:56.175Z,34.94
2018-08-11T16:33:25.658Z,34.80
2018-08-11T16:35:55.260Z,35.70
2018-08-11T16:38:24.689Z,35.96
2018-08-11T16:40:54.136Z,35.34
2018-08-11T16:43:23.598Z,36.69
2018-08-11T16:45:53.243Z,35.95
2018-08-11T16:48:22.555Z,35.31
2018-08-11T16:50:51.844Z,35.99
2018-08-11T16:53:22.050Z,35.20
2018-08-11T16:55:51.716Z,35.68
2018-08-11T16:58:22.066Z,35.31
2018-08-11T17:00:51.747Z,34.84
2018-08-11T17:03:20.842Z,36.16
2018-08-11T17:05:50.838Z,36.16
2018-08-11T17:08:20.406Z,36.11
2018-08-11T17:10:49.697Z,35.88
2018-08-11T17:13:18.972Z,35.86
2018-08-11T17:15:48.289Z,35.64
2018-08-11T17:18:17.564Z,36.53
2018-08-11T17:20:47.044Z,36.66
2018-08-11T17:23:16.688Z,37.18
2018-08-11T17:25:46.260Z,37.53
2018-08-11T17:28:15.622Z,36.90
2018-08-11T17:30:44.852Z,37.87
2018-08-11T17:33:15.094Z,38.53
2018-08-11T17:35:44.577Z,38.10
2018-08-11T17:38:14.094Z,38.85
2018-08-11T17:40:45.068Z,38.94
2018-08-11T17:43:15.007Z,38.91
2018-08-11T17:45:44.550Z,39.50
2018-08-11T17:48:13.949Z,38.80
2018-08-11T17:50:43.321Z,38.35
2018-08-11T17:53:12.638Z,39.24
2018-08-11T17:55:42.115Z,38.79
2018-08-11T17:58:11.549Z,39.00
2018-08-11T18:00:40.823Z,38.55
2018-08-11T18:03:10.377Z,38.93
2018-08-11T18:05:39.806Z,38.86
2018-08-11T18:08:09.444Z,39.79
2018-08-11T18:10:38.893Z,39.72
2018-08-11T18:13:08.207Z,40.12
2018-08-11T18:15:37.610Z,40.79
2018-08-11T18:18:06.929Z,40.84
2018-08-11T18:20:36.165Z,40.93
2018-08-11T18:23:05.524Z,41.34
2018-08-11T18:25:37.599Z,40.75
2018-08-11T18:28:06.961Z,40.38
2018-08-11T18:30:36.578Z,41.39
2018-08-11T18:33:06.338Z,40.78
2018-08-11T18:35:42.297Z,40.60
2018-08-11T18:38:11.554Z,41.87
2018-08-11T18:40:40.873Z,41.77
2018-08-11T18:43:10.221Z,41.92
2018-08-11T18:45:39.656Z,41.44
2018-08-11T18:48:09.171Z,42.58
2018-08-11T18:50:38.595Z,42.56
2018-08-11T18:53:07.952Z,43.32
2018-08-11T18:55:37.142Z,42.61
2018-08-11T18:58:07.305Z,42.67
2018-08-11T19:00:36.733Z,43.00
2018-08-11T19:03:06.201Z,42.96
2018-08-11T19:05:35.888Z,44.22
2018-08-11T19:08:05.376Z,44.05
2018-08-11T19:10:34.993Z,44.06
2018-08-11T19:13:04.142Z,44.43
2018-08-11T19:15:33.489Z,44.61
2018-08-11T19:18:02.915Z,45.49
2018-08-11T19:20:32.751Z,45.66
2018-08-11T19:23:02.213Z,45.01
2018-08-11T19:25:32.156Z,45.77
2018-08-11T19:28:01.341Z,46.08
2018-08-11T19:30:30.550Z,46.64
2018-08-11T19:32:59.641Z,46.81
2018-08-11T19:35:28.795Z,47.06
2018-08-11T19:37:58.357Z,46.72
2018-08-11T19:40:27.633Z,47.58
2018-08-11T19:43:01.135Z,47.15
2018-08-11T19:45:30.420Z,47.86
2018-08-11T19:47:59.385Z,47.54
2018-08-11T19:50:28.640Z,48.30
2018-08-11T19:52:57.904Z,48.69
2018-08-11T19:55:27.267Z,47.88
2018-08-11T19:57:56.296Z,48.75
2018-08-11T20:00:25.472Z,48.37
2018-08-11T20:02:54.525Z,48.28
2018-08-11T20:05:23.924Z,49.38
2018-08-11T20:07:53.262Z,49.13
2018-08-11T20:10:22.942Z,49.72
2018-08-11T20:12:52.295Z,48.78
2018-08-11T20:15:21.506Z,49.07
2018-08-11T20:17:50.792Z,49.25
2018-08-11T20:20:20.257Z,49.36
2018-08-11T20:22:49.540Z,49.30
2018-08-11T20:25:19.433Z,49.64
2018-08-11T20:27:48.896Z,49.62
2018-08-11T20:30:17.755Z,50.04
2018-08-11T20:32:47.149Z,49.84
2018-08-11T20:35:16.036Z,50.62
2018-08-11T20:37:45.247Z,50.83
2018-08-11T20:40:14.763Z,49.89
2018-08-11T20:42:44.416Z,50.77
2018-08-11T20:45:13.742Z,50.52
2018-08-11T20:47:43.122Z,51.41
2018-08-11T20:50:11.957Z,50.50
2018-08-11T20:52:42.489Z,50.90
2018-08-11T20:55:11.755Z,51.09
2018-08-11T20:57:41.585Z,52.04
2018-08-11T21:00:13.210Z,51.10
2018-08-11T21:02:42.884Z,51.32
2018-08-11T21:05:13.634Z,52.12
2018-08-11T21:07:43.411Z,52.24
2018-08-11T21:10:14.477Z,52.11
2018-08-11T21:12:48.801Z,52.06
2018-08-11T21:15:18.220Z,52.38
2018-08-11T21:17:47.492Z,52.55
2018-08-11T21:20:16.770Z,52.19
2018-08-11T21:22:46.669Z,52.25
2018-08-11T21:25:15.953Z,52.80
2018-08-11T21:27:45.191Z,53.04
2018-08-11T21:30:15.047Z,52.90
2018-08-11T21:32:45.033Z,52.99
2018-08-11T21:35:14.634Z,53.29
2018-08-11T21:37:44.004Z,53.79
2018-08-11T21:40:14.892Z,52.92
2018-08-11T21:42:44.475Z,53.93
2018-08-11T21:45:13.775Z,53.71
2018-08-11T21:47:43.453Z,54.31
2018-08-11T21:50:13.545Z,54.40
2018-08-11T21:52:43.097Z,54.10
2018-08-11T21:55:13.106Z,54.98
2018-08-11T21:57:42.779Z,54.84
2018-08-11T22:00:35.292Z,54.27
2018-08-11T22:03:05.585Z,54.39
2018-08-11T22:05:34.711Z,55.29
2018-08-11T22:08:04.243Z,54.46
2018-08-11T22:10:33.445Z,54.70
2018-08-11T22:13:02.741Z,55.52
2018-08-11T22:15:31.814Z,55.79
2018-08-11T22:18:01.093Z,55.90
2018-08-11T22:20:30.616Z,55.71
2018-08-11T22:22:59.990Z,55.29
2018-08-11T22:25:29.467Z,55.57
2018-08-11T22:27:58.664Z,55.86
2018-08-11T22:30:27.856Z,56.11
2018-08-11T22:32:57.670Z,56.77
2018-08-11T22:35:26.928Z,56.39
2018-08-11T22:37:56.358Z,56.45
2018-08-11T22:40:25.395Z,57.10
2018-08-11T22:42:54.644Z,57.29
2018-08-11T22:45:23.775Z,57.29
2018-08-11T22:47:53.002Z,57.09
2018-08-11T22:50:22.253Z,56.80
2018-08-11T22:52:51.483Z,57.54
2018-08-11T22:55:20.752Z,57.11
2018-08-11T22:57:49.821Z,56.94
2018-08-11T23:00:21.689Z,57.84
2018-08-11T23:02:51.406Z,58.24
2018-08-11T23:05:21.589Z,58.27
2018-08-11T23:07:50.765Z,57.72
2018-08-11T23:10:20.028Z,57.75
2018-08-11T23:12:49.426Z,57.36
2018-08-11T23:15:19.589Z,57.82
2018-08-11T23:17:49.940Z,58.08
2018-08-11T23:20:19.179Z,58.96
2018-08-11T23:22:48.392Z,58.71
2018-08-11T23:25:17.738Z,58.30
2018-08-11T23:27:46.961Z,59.14
2018-08-11T23:30:17.313Z,59.35
2018-08-11T23:32:46.746Z,59.24
2018-08-11T23:35:16.232Z,59.62
2018-08-11T23:37:46.098Z,58.96
2018-08-11T23:40:15.337Z,58.62
2018-08-11T23:42:44.577Z,58.66
2018-08-11T23:45:15.300Z,59.10
2018-08-11T23:47:44.532Z,58.87
2018-08-11T23:50:14.657Z,58.60
2018-08-11T23:52:44.613Z,58.55
2018-08-11T23:55:14.704Z,59.24
2018-08-11T23:57:45.039Z,58.52
